createdAt,value
2018-12-30T00:00:42.663Z,1005.5
2018-12-30T00:01:43.381Z,1005.6
2018-12-30T00:02:44.132Z,1005.6
2018-12-30T00:03:44.892Z,1005.6
2018-12-30T00:04:45.604Z,1005.6
2018-12-30T00:05:46.712Z,1005.7
2018-12-30T00:06:47.463Z,1005.7
2018-12-30T00:07:48.168Z,1005.7
2018-12-30T00:08:48.889Z,1005.7
2018-12-30T00:09:49.637Z,1005.7
2018-12-30T00:10:50.410Z,1005.7
2018-12-30T00:11:51.125Z,1005.7
2018-12-30T00:12:51.827Z,1005.8
2018-12-30T00:13:52.559Z,1005.8
2018-12-30T00:14:53.256Z,1005.8
2018-12-30T00:15:55.033Z,1005.9
2018-12-30T00:16:56.131Z,1005.9
2018-12-30T00:17:57.103Z,1005.9
2018-12-30T00:18:57.809Z,1005.9
2018-12-30T00:19:58.526Z,1005.9
2018-12-30T00:20:59.238Z,1005.9
2018-12-30T00:21:59.952Z,1006.0
2018-12-30T00:23:00.656Z,1006.0
2018-12-30T00:24:01.387Z,1006.1
2018-12-30T00:25:02.143Z,1006.1
2018-12-30T00:26:02.848Z,1005.9
2018-12-30T00:27:03.555Z,1006.0
2018-12-30T00:28:04.260Z,1006.1
2018-12-30T00:29:04.968Z,1006.1
2018-12-30T00:30:05.691Z,1006.1
2018-12-30T00:31:06.408Z,1006.1
2018-12-30T00:32:07.106Z,1006.2
2018-12-30T00:33:07.830Z,1006.2
2018-12-30T00:34:08.534Z,1006.2
2018-12-30T00:35:09.392Z,1006.3
2018-12-30T00:36:10.112Z,1006.3
2018-12-30T00:37:10.828Z,1006.3
2018-12-30T00:38:11.543Z,1006.4
2018-12-30T00:39:12.264Z,1006.3
2018-12-30T00:40:13.070Z,1006.4
2018-12-30T00:41:13.781Z,1006.5
2018-12-30T00:42:14.499Z,1006.5
2018-12-30T00:43:15.203Z,1006.5
2018-12-30T00:44:16.397Z,1006.5
2018-12-30T00:45:17.242Z,1006.6
2018-12-30T00:46:18.105Z,1006.6
2018-12-30T00:47:18.811Z,1006.6
2018-12-30T00:48:19.522Z,1006.6
2018-12-30T00:49:20.226Z,1006.6
2018-12-30T00:50:20.946Z,1006.6
2018-12-30T00:51:21.701Z,1006.7
2018-12-30T00:52:22.679Z,1006.7
2018-12-30T00:53:23.386Z,1006.7
2018-12-30T00:54:24.097Z,1006.8
2018-12-30T00:55:24.807Z,1006.8
2018-12-30T00:56:25.560Z,1006.9
2018-12-30T00:57:26.267Z,1006.9
2018-12-30T00:58:26.981Z,1006.9
2018-12-30T00:59:27.690Z,1007.0
2018-12-30T01:00:28.405Z,1006.9
2018-12-30T01:01:29.212Z,1007.1
2018-12-30T01:02:29.926Z,1007.0
2018-12-30T01:03:30.633Z,1007.1
2018-12-30T01:04:31.342Z,1007.2
2018-12-30T01:05:32.045Z,1007.1
2018-12-30T01:06:32.756Z,1007.1
2018-12-30T01:07:33.464Z,1007.2
2018-12-30T01:08:34.179Z,1007.3
2018-12-30T01:09:34.895Z,1007.2
2018-12-30T01:10:35.596Z,1007.3
2018-12-30T01:11:36.319Z,1007.3
2018-12-30T01:12:37.032Z,1007.3
2018-12-30T01:13:37.736Z,1007.4
2018-12-30T01:14:38.494Z,1007.4
2018-12-30T01:15:39.205Z,1007.4
2018-12-30T01:16:39.917Z,1007.5
2018-12-30T01:17:40.629Z,1007.5
2018-12-30T01:18:41.335Z,1007.6
2018-12-30T01:19:42.047Z,1007.5
2018-12-30T01:20:42.802Z,1007.6
2018-12-30T01:21:43.506Z,1007.7
2018-12-30T01:22:44.216Z,1007.6
2018-12-30T01:23:44.925Z,1007.7
2018-12-30T01:24:45.637Z,1007.8
2018-12-30T01:25:46.398Z,1007.8
2018-12-30T01:26:47.107Z,1007.8
2018-12-30T01:27:47.827Z,1007.8
2018-12-30T01:28:48.536Z,1007.8
2018-12-30T01:29:49.254Z,1007.8
2018-12-30T01:30:50.066Z,1007.9
2018-12-30T01:31:50.779Z,1008.0
2018-12-30T01:32:51.492Z,1008.0
2018-12-30T01:33:52.206Z,1007.9
2018-12-30T01:34:52.912Z,1008.1
2018-12-30T01:35:54.134Z,1008.1
2018-12-30T01:36:54.983Z,1008.2
2018-12-30T01:37:55.696Z,1008.2
2018-12-30T01:38:56.404Z,1008.1
2018-12-30T01:39:57.105Z,1008.2
2018-12-30T01:40:57.827Z,1008.1
2018-12-30T01:41:58.529Z,1008.2
2018-12-30T01:42:59.340Z,1008.2
2018-12-30T01:44:01.357Z,1008.2
2018-12-30T01:45:02.095Z,1008.2
2018-12-30T01:46:02.848Z,1008.3
2018-12-30T01:47:03.593Z,1008.2
2018-12-30T01:48:04.860Z,1008.4
2018-12-30T01:49:05.645Z,1008.4
2018-12-30T01:50:06.582Z,1008.4
2018-12-30T01:51:07.303Z,1008.4
2018-12-30T01:52:08.053Z,1008.5
2018-12-30T01:53:08.753Z,1008.6
2018-12-30T01:54:09.794Z,1008.5
2018-12-30T01:55:10.504Z,1008.5
2018-12-30T01:56:11.211Z,1008.6
2018-12-30T01:57:11.923Z,1008.7
2018-12-30T01:58:12.632Z,1008.6
2018-12-30T01:59:13.397Z,1008.6
2018-12-30T02:00:14.100Z,1008.6
2018-12-30T02:01:14.822Z,1008.7
2018-12-30T02:02:15.523Z,1008.7
2018-12-30T02:03:16.237Z,1008.6
2018-12-30T02:04:16.947Z,1008.7
2018-12-30T02:05:17.662Z,1008.7
2018-12-30T02:06:18.368Z,1008.6
2018-12-30T02:07:19.088Z,1008.7
2018-12-30T02:08:19.801Z,1008.7
2018-12-30T02:09:20.508Z,1008.8
2018-12-30T02:10:21.215Z,1008.8
2018-12-30T02:11:22.029Z,1008.8
2018-12-30T02:12:22.737Z,1008.8
2018-12-30T02:13:23.459Z,1008.9
2018-12-30T02:14:24.253Z,1008.9
2018-12-30T02:15:25.178Z,1008.9
2018-12-30T02:16:25.955Z,1008.9
2018-12-30T02:17:26.659Z,1009.0
2018-12-30T02:18:27.630Z,1009.0
2018-12-30T02:19:28.334Z,1008.9
2018-12-30T02:20:29.043Z,1008.9
2018-12-30T02:21:29.755Z,1009.0
2018-12-30T02:22:30.464Z,1009.0
2018-12-30T02:23:31.174Z,1009.0
2018-12-30T02:24:31.889Z,1009.0
2018-12-30T02:25:32.650Z,1009.0
2018-12-30T02:26:33.359Z,1009.1
2018-12-30T02:27:34.131Z,1009.2
2018-12-30T02:28:34.852Z,1009.2
2018-12-30T02:29:35.558Z,1009.3
2018-12-30T02:30:36.273Z,1009.3
2018-12-30T02:31:36.980Z,1009.3
2018-12-30T02:32:37.692Z,1009.3
2018-12-30T02:33:38.403Z,1009.3
2018-12-30T02:34:39.113Z,1009.3
2018-12-30T02:35:39.844Z,1009.4
2018-12-30T02:36:40.548Z,1009.4
2018-12-30T02:37:41.266Z,1009.5
2018-12-30T02:38:41.980Z,1009.6
2018-12-30T02:39:42.689Z,1009.5
2018-12-30T02:40:43.400Z,1009.5
2018-12-30T02:41:44.114Z,1009.5
2018-12-30T02:42:44.826Z,1009.4
2018-12-30T02:43:45.632Z,1009.5
2018-12-30T02:44:46.346Z,1009.5
2018-12-30T02:45:47.059Z,1009.5
2018-12-30T02:46:47.770Z,1009.6
2018-12-30T02:47:48.490Z,1009.6
2018-12-30T02:48:49.202Z,1009.6
2018-12-30T02:49:49.911Z,1009.5
2018-12-30T02:50:50.633Z,1009.6
2018-12-30T02:51:51.341Z,1009.6
2018-12-30T02:52:52.069Z,1009.6
2018-12-30T02:53:52.777Z,1009.7
2018-12-30T02:54:53.494Z,1009.6
2018-12-30T02:55:54.201Z,1009.7
2018-12-30T02:56:54.909Z,1009.7
2018-12-30T02:57:55.634Z,1009.7
2018-12-30T02:58:56.348Z,1009.7
2018-12-30T02:59:57.057Z,1009.7
2018-12-30T03:00:57.821Z,1009.8
2018-12-30T03:01:58.528Z,1009.9
2018-12-30T03:02:59.238Z,1009.9
2018-12-30T03:03:59.952Z,1009.9
2018-12-30T03:05:00.657Z,1009.9
2018-12-30T03:06:01.382Z,1010.0
2018-12-30T03:07:02.085Z,1010.0
2018-12-30T03:08:02.807Z,1010.0
2018-12-30T03:09:03.509Z,1010.0
2018-12-30T03:10:04.228Z,1010.0
2018-12-30T03:11:04.948Z,1010.1
2018-12-30T03:12:05.652Z,1010.0
2018-12-30T03:13:06.461Z,1010.0
2018-12-30T03:14:07.167Z,1010.0
2018-12-30T03:15:07.874Z,1010.0
2018-12-30T03:16:08.587Z,1010.0
2018-12-30T03:17:09.308Z,1010.0
2018-12-30T03:18:10.016Z,1010.1
2018-12-30T03:19:10.730Z,1010.1
2018-12-30T03:20:11.450Z,1010.1
2018-12-30T03:21:12.157Z,1010.1
2018-12-30T03:22:12.879Z,1010.1
2018-12-30T03:23:13.597Z,1010.2
2018-12-30T03:24:14.566Z,1010.2
2018-12-30T03:25:15.277Z,1010.2
2018-12-30T03:26:15.980Z,1010.3
2018-12-30T03:27:16.696Z,1010.3
2018-12-30T03:28:17.561Z,1010.3
2018-12-30T03:29:18.273Z,1010.2
2018-12-30T03:30:18.978Z,1010.3
2018-12-30T03:31:19.694Z,1010.3
2018-12-30T03:32:20.419Z,1010.3
2018-12-30T03:33:21.126Z,1010.3
2018-12-30T03:34:21.834Z,1010.4
2018-12-30T03:35:22.547Z,1010.4
2018-12-30T03:36:23.259Z,1010.3
2018-12-30T03:37:24.211Z,1010.4
2018-12-30T03:38:24.914Z,1010.3
2018-12-30T03:39:25.643Z,1010.3
2018-12-30T03:40:26.367Z,1010.3
2018-12-30T03:41:27.075Z,1010.4
2018-12-30T03:42:27.796Z,1010.4
2018-12-30T03:43:28.513Z,1010.4
2018-12-30T03:44:29.212Z,1010.5
2018-12-30T03:45:29.935Z,1010.4
2018-12-30T03:46:30.640Z,1010.4
2018-12-30T03:47:31.364Z,1010.4
2018-12-30T03:48:32.076Z,1010.5
2018-12-30T03:49:32.791Z,1010.5
2018-12-30T03:50:33.495Z,1010.5
2018-12-30T03:51:34.214Z,1010.5
2018-12-30T03:52:34.937Z,1010.5
2018-12-30T03:53:35.672Z,1010.4
2018-12-30T03:54:36.389Z,1010.5
2018-12-30T03:55:37.103Z,1010.5
2018-12-30T03:56:37.814Z,1010.5
2018-12-30T03:57:38.519Z,1010.5
2018-12-30T03:58:39.228Z,1010.6
2018-12-30T03:59:40.016Z,1010.6
2018-12-30T04:00:40.709Z,1010.6
2018-12-30T04:01:41.426Z,1010.6
2018-12-30T04:02:42.136Z,1010.6
2018-12-30T04:03:42.845Z,1010.6
2018-12-30T04:04:43.558Z,1010.6
2018-12-30T04:05:44.523Z,1010.6
2018-12-30T04:06:45.247Z,1010.6
2018-12-30T04:07:45.953Z,1010.6
2018-12-30T04:08:46.677Z,1010.6
2018-12-30T04:09:47.388Z,1010.6
2018-12-30T04:10:48.106Z,1010.7
2018-12-30T04:11:49.075Z,1010.7
2018-12-30T04:12:49.845Z,1010.7
2018-12-30T04:13:50.801Z,1010.8
2018-12-30T04:14:51.525Z,1010.8
2018-12-30T04:15:52.337Z,1010.8
2018-12-30T04:16:52.959Z,1010.9
2018-12-30T04:17:53.761Z,1010.9
2018-12-30T04:18:54.472Z,1010.9
2018-12-30T04:19:55.431Z,1010.9
2018-12-30T04:20:56.150Z,1011.0
2018-12-30T04:21:56.869Z,1011.0
2018-12-30T04:22:57.628Z,1011.0
2018-12-30T04:23:58.337Z,1011.0
2018-12-30T04:24:59.050Z,1011.0
2018-12-30T04:25:59.757Z,1011.0
2018-12-30T04:27:00.717Z,1011.0
2018-12-30T04:28:01.474Z,1010.9
2018-12-30T04:29:02.180Z,1010.9
2018-12-30T04:30:03.137Z,1011.0
2018-12-30T04:31:03.851Z,1011.0
2018-12-30T04:32:04.558Z,1011.1
2018-12-30T04:33:05.334Z,1011.1
2018-12-30T04:34:06.043Z,1011.1
2018-12-30T04:35:06.759Z,1011.1
2018-12-30T04:36:07.481Z,1011.1
2018-12-30T04:37:08.186Z,1011.2
2018-12-30T04:38:08.908Z,1011.1
2018-12-30T04:39:09.615Z,1011.2
2018-12-30T04:40:10.328Z,1011.2
2018-12-30T04:41:11.047Z,1011.2
2018-12-30T04:42:11.748Z,1011.2
2018-12-30T04:43:12.453Z,1011.2
2018-12-30T04:44:13.164Z,1011.2
2018-12-30T04:45:13.875Z,1011.2
2018-12-30T04:46:14.588Z,1011.2
2018-12-30T04:47:15.554Z,1011.3
2018-12-30T04:48:16.275Z,1011.3
2018-12-30T04:49:16.991Z,1011.3
2018-12-30T04:50:17.706Z,1011.3
2018-12-30T04:51:18.671Z,1011.3
2018-12-30T04:52:25.554Z,1011.4
2018-12-30T04:53:20.087Z,1011.4
2018-12-30T04:54:20.807Z,1011.4
2018-12-30T04:55:21.524Z,1011.5
2018-12-30T04:56:22.233Z,1011.5
2018-12-30T04:57:22.951Z,1011.5
2018-12-30T04:58:23.911Z,1011.5
2018-12-30T04:59:24.618Z,1011.5
2018-12-30T05:00:25.581Z,1011.6
2018-12-30T05:01:26.302Z,1011.6
2018-12-30T05:02:27.066Z,1011.6
2018-12-30T05:03:27.777Z,1011.6
2018-12-30T05:04:28.489Z,1011.7
2018-12-30T05:05:29.202Z,1011.7
2018-12-30T05:06:30.157Z,1011.6
2018-12-30T05:07:30.973Z,1011.6
2018-12-30T05:08:31.681Z,1011.6
2018-12-30T05:09:32.399Z,1011.7
2018-12-30T05:10:33.107Z,1011.7
2018-12-30T05:11:33.826Z,1011.7
2018-12-30T05:12:34.640Z,1011.7
2018-12-30T05:13:35.600Z,1011.7
2018-12-30T05:14:36.316Z,1011.9
2018-12-30T05:15:37.028Z,1011.8
2018-12-30T05:16:37.752Z,1011.8
2018-12-30T05:17:38.459Z,1011.9
2018-12-30T05:18:39.162Z,1011.9
2018-12-30T05:19:39.882Z,1011.9
2018-12-30T05:20:40.606Z,1011.9
2018-12-30T05:21:41.319Z,1012.0
2018-12-30T05:22:42.035Z,1012.0
2018-12-30T05:23:42.749Z,1012.0
2018-12-30T05:24:43.459Z,1012.0
2018-12-30T05:25:44.410Z,1012.0
2018-12-30T05:26:45.125Z,1012.0
2018-12-30T05:27:45.836Z,1012.0
2018-12-30T05:28:46.544Z,1012.0
2018-12-30T05:29:47.269Z,1012.0
2018-12-30T05:30:47.980Z,1012.0
2018-12-30T05:31:48.941Z,1012.1
2018-12-30T05:32:49.651Z,1012.1
2018-12-30T05:33:50.372Z,1012.0
2018-12-30T05:34:51.083Z,1012.0
2018-12-30T05:35:51.796Z,1012.0
2018-12-30T05:36:52.514Z,1012.0
2018-12-30T05:37:53.236Z,1012.0
2018-12-30T05:38:53.946Z,1012.1
2018-12-30T05:39:54.647Z,1012.0
2018-12-30T05:40:55.377Z,1012.0
2018-12-30T05:41:56.093Z,1012.0
2018-12-30T05:42:56.804Z,1012.0
2018-12-30T05:43:57.506Z,1012.0
2018-12-30T05:44:58.227Z,1012.1
2018-12-30T05:45:58.942Z,1012.0
2018-12-30T05:46:59.644Z,1012.1
2018-12-30T05:48:00.377Z,1012.1
2018-12-30T05:49:01.089Z,1012.1
2018-12-30T05:50:01.808Z,1012.2
2018-12-30T05:51:02.518Z,1012.2
2018-12-30T05:52:03.221Z,1012.2
2018-12-30T05:53:03.929Z,1012.2
2018-12-30T05:54:04.656Z,1012.2
2018-12-30T05:55:05.371Z,1012.3
2018-12-30T05:56:06.326Z,1012.4
2018-12-30T05:57:07.034Z,1012.4
2018-12-30T05:58:07.748Z,1012.3
2018-12-30T05:59:08.467Z,1012.3
2018-12-30T06:00:09.180Z,1012.3
2018-12-30T06:01:09.896Z,1012.3
2018-12-30T06:02:10.607Z,1012.4
2018-12-30T06:03:11.318Z,1012.4
2018-12-30T06:04:12.031Z,1012.4
2018-12-30T06:05:12.750Z,1012.4
2018-12-30T06:06:13.463Z,1012.5
2018-12-30T06:07:14.428Z,1012.4
2018-12-30T06:08:15.200Z,1012.4
2018-12-30T06:09:16.181Z,1012.4
2018-12-30T06:10:16.895Z,1012.5
2018-12-30T06:11:17.602Z,1012.4
2018-12-30T06:12:18.310Z,1012.5
2018-12-30T06:13:19.022Z,1012.5
2018-12-30T06:14:19.733Z,1012.5
2018-12-30T06:15:20.457Z,1012.5
2018-12-30T06:16:21.178Z,1012.5
2018-12-30T06:17:21.891Z,1012.5
2018-12-30T06:18:22.900Z,1012.5
2018-12-30T06:19:23.607Z,1012.5
2018-12-30T06:20:24.687Z,1012.5
2018-12-30T06:21:25.387Z,1012.5
2018-12-30T06:22:26.356Z,1012.5
2018-12-30T06:23:27.075Z,1012.6
2018-12-30T06:24:27.884Z,1012.6
2018-12-30T06:25:28.596Z,1012.6
2018-12-30T06:26:29.311Z,1012.6
2018-12-30T06:27:30.304Z,1012.7
2018-12-30T06:28:31.004Z,1012.6
2018-12-30T06:29:31.715Z,1012.7
2018-12-30T06:30:32.439Z,1012.7
2018-12-30T06:31:33.146Z,1012.7
2018-12-30T06:32:33.867Z,1012.7
2018-12-30T06:33:34.585Z,1012.7
2018-12-30T06:34:35.536Z,1012.8
2018-12-30T06:35:36.307Z,1012.8
2018-12-30T06:36:37.274Z,1012.8
2018-12-30T06:37:37.982Z,1012.8
2018-12-30T06:38:38.700Z,1012.8
2018-12-30T06:39:39.428Z,1012.9
2018-12-30T06:40:40.138Z,1012.8
2018-12-30T06:41:40.866Z,1012.9
2018-12-30T06:42:41.572Z,1012.9
2018-12-30T06:43:42.284Z,1012.9
2018-12-30T06:44:42.999Z,1012.9
2018-12-30T06:45:44.020Z,1012.9
2018-12-30T06:46:44.727Z,1013.0
2018-12-30T06:47:46.004Z,1013.0
2018-12-30T06:48:46.711Z,1013.0
2018-12-30T06:49:47.438Z,1013.1
2018-12-30T06:51:50.812Z,1013.1
2018-12-30T06:52:57.620Z,1013.1
2018-12-30T06:53:52.240Z,1013.1
2018-12-30T06:54:52.958Z,1013.1
2018-12-30T06:55:53.675Z,1013.1
2018-12-30T06:56:54.735Z,1013.1
2018-12-30T06:57:55.443Z,1013.1
2018-12-30T06:58:56.161Z,1013.1
2018-12-30T06:59:56.879Z,1013.1
2018-12-30T07:00:57.589Z,1013.1
2018-12-30T07:01:58.357Z,1013.2
2018-12-30T07:02:59.073Z,1013.2
2018-12-30T07:03:59.782Z,1013.1
2018-12-30T07:05:00.495Z,1013.1
2018-12-30T07:06:01.213Z,1013.0
2018-12-30T07:07:02.173Z,1013.1
2018-12-30T07:08:02.883Z,1013.1
2018-12-30T07:09:03.596Z,1013.1
2018-12-30T07:10:04.357Z,1013.1
2018-12-30T07:11:05.071Z,1013.1
2018-12-30T07:12:05.795Z,1013.1
2018-12-30T07:13:06.593Z,1013.1
2018-12-30T07:14:08.629Z,1013.1
2018-12-30T07:15:08.024Z,1013.0
2018-12-30T07:16:08.743Z,1013.1
2018-12-30T07:17:09.456Z,1013.1
2018-12-30T07:18:10.220Z,1013.1
2018-12-30T07:19:10.934Z,1013.1
2018-12-30T07:20:11.656Z,1013.1
2018-12-30T07:21:12.365Z,1013.2
2018-12-30T07:22:13.071Z,1013.2
2018-12-30T07:23:13.779Z,1013.2
2018-12-30T07:24:14.734Z,1013.2
2018-12-30T07:25:15.450Z,1013.2
2018-12-30T07:26:16.262Z,1013.2
2018-12-30T07:27:18.422Z,1013.2
2018-12-30T07:28:17.704Z,1013.2
2018-12-30T07:29:18.422Z,1013.2
2018-12-30T07:30:19.131Z,1013.1
2018-12-30T07:31:19.864Z,1013.1
2018-12-30T07:32:20.588Z,1013.1
2018-12-30T07:33:23.072Z,1013.1
2018-12-30T07:34:22.024Z,1013.1
2018-12-30T07:35:23.030Z,1013.1
2018-12-30T07:36:23.854Z,1013.1
2018-12-30T07:37:24.575Z,1013.1
2018-12-30T07:38:25.284Z,1013.1
2018-12-30T07:39:26.003Z,1013.1
2018-12-30T07:40:26.718Z,1013.1
2018-12-30T07:41:27.453Z,1013.1
2018-12-30T07:42:28.160Z,1013.1
2018-12-30T07:43:28.887Z,1013.2
2018-12-30T07:44:29.602Z,1013.1
2018-12-30T07:45:30.316Z,1013.1
2018-12-30T07:46:31.038Z,1013.1
2018-12-30T07:47:31.754Z,1013.2
2018-12-30T07:48:32.463Z,1013.2
2018-12-30T07:49:33.184Z,1013.2
2018-12-30T07:50:34.148Z,1013.2
2018-12-30T07:51:35.287Z,1013.2
2018-12-30T07:52:35.995Z,1013.2
2018-12-30T07:53:36.806Z,1013.2
2018-12-30T07:54:37.527Z,1013.3
2018-12-30T07:55:38.245Z,1013.3
2018-12-30T07:56:38.957Z,1013.3
2018-12-30T07:57:39.673Z,1013.3
2018-12-30T07:58:40.447Z,1013.3
2018-12-30T07:59:41.167Z,1013.3
2018-12-30T08:00:41.883Z,1013.3
2018-12-30T08:01:42.592Z,1013.3
2018-12-30T08:02:43.307Z,1013.3
2018-12-30T08:03:44.018Z,1013.3
2018-12-30T08:04:44.746Z,1013.3
2018-12-30T08:05:45.725Z,1013.3
2018-12-30T08:06:46.435Z,1013.3
2018-12-30T08:07:47.160Z,1013.2
2018-12-30T08:08:47.918Z,1013.2
2018-12-30T08:09:48.637Z,1013.2
2018-12-30T08:10:49.390Z,1013.2
2018-12-30T08:11:50.062Z,1013.2
2018-12-30T08:12:50.782Z,1013.3
2018-12-30T08:13:51.504Z,1013.3
2018-12-30T08:14:52.321Z,1013.4
2018-12-30T08:15:53.051Z,1013.4
2018-12-30T08:16:53.763Z,1013.4
2018-12-30T08:17:54.481Z,1013.3
2018-12-30T08:18:55.218Z,1013.3
2018-12-30T08:19:55.919Z,1013.3
2018-12-30T08:20:56.635Z,1013.3
2018-12-30T08:21:57.362Z,1013.3
2018-12-30T08:22:58.080Z,1013.3
2018-12-30T08:23:58.806Z,1013.3
2018-12-30T08:24:59.885Z,1013.3
2018-12-30T08:26:00.604Z,1013.3
2018-12-30T08:27:01.349Z,1013.3
2018-12-30T08:28:02.070Z,1013.3
2018-12-30T08:29:02.818Z,1013.3
2018-12-30T08:30:03.540Z,1013.3
2018-12-30T08:31:04.302Z,1013.4
2018-12-30T08:32:05.028Z,1013.4
2018-12-30T08:33:05.753Z,1013.4
2018-12-30T08:34:06.464Z,1013.3
2018-12-30T08:35:07.196Z,1013.4
2018-12-30T08:36:07.956Z,1013.4
2018-12-30T08:37:08.684Z,1013.4
2018-12-30T08:38:09.410Z,1013.4
2018-12-30T08:39:10.115Z,1013.4
2018-12-30T08:40:10.850Z,1013.4
2018-12-30T08:41:11.722Z,1013.4
2018-12-30T08:42:12.436Z,1013.5
2018-12-30T08:43:13.166Z,1013.5
2018-12-30T08:44:13.896Z,1013.6
2018-12-30T08:45:15.845Z,1013.6
2018-12-30T08:46:15.398Z,1013.5
2018-12-30T08:47:16.115Z,1013.5
2018-12-30T08:48:16.835Z,1013.6
2018-12-30T08:49:17.545Z,1013.6
2018-12-30T08:50:18.267Z,1013.7
2018-12-30T08:51:18.974Z,1013.7
2018-12-30T08:52:19.697Z,1013.7
2018-12-30T08:53:20.418Z,1013.7
2018-12-30T08:54:21.148Z,1013.7
2018-12-30T08:55:21.874Z,1013.7
2018-12-30T08:56:22.600Z,1013.7
2018-12-30T08:57:23.415Z,1013.7
2018-12-30T08:58:24.139Z,1013.7
2018-12-30T08:59:24.869Z,1013.7
2018-12-30T09:00:25.578Z,1013.8
2018-12-30T09:01:28.541Z,1013.8
2018-12-30T09:02:27.018Z,1013.8
2018-12-30T09:03:27.725Z,1013.9
2018-12-30T09:04:28.443Z,1013.9
2018-12-30T09:05:29.160Z,1013.9
2018-12-30T09:06:29.880Z,1013.9
2018-12-30T09:07:30.647Z,1013.9
2018-12-30T09:08:31.372Z,1013.8
2018-12-30T09:09:32.094Z,1013.8
2018-12-30T09:10:32.818Z,1013.9
2018-12-30T09:11:33.539Z,1013.8
2018-12-30T09:12:34.311Z,1013.8
2018-12-30T09:13:35.037Z,1013.8
2018-12-30T09:14:35.754Z,1013.8
2018-12-30T09:15:36.488Z,1013.7
2018-12-30T09:16:37.214Z,1013.7
2018-12-30T09:17:37.942Z,1013.8
2018-12-30T09:18:38.655Z,1013.8
2018-12-30T09:19:39.373Z,1013.8
2018-12-30T09:20:40.089Z,1013.8
2018-12-30T09:21:40.819Z,1013.9
2018-12-30T09:22:41.551Z,1013.9
2018-12-30T09:23:42.279Z,1013.9
2018-12-30T09:24:43.312Z,1013.9
2018-12-30T09:25:44.023Z,1013.9
2018-12-30T09:26:45.343Z,1013.9
2018-12-30T09:27:46.196Z,1013.9
2018-12-30T09:28:46.930Z,1013.9
2018-12-30T09:29:47.704Z,1013.9
2018-12-30T09:30:48.391Z,1013.9
2018-12-30T09:31:49.113Z,1013.9
2018-12-30T09:32:49.845Z,1013.8
2018-12-30T09:33:50.555Z,1013.7
2018-12-30T09:34:51.290Z,1013.6
2018-12-30T09:35:52.016Z,1013.6
2018-12-30T09:36:53.359Z,1013.6
2018-12-30T09:37:53.454Z,1013.7
2018-12-30T09:38:54.171Z,1013.7
2018-12-30T09:39:54.935Z,1013.6
2018-12-30T09:40:55.654Z,1013.6
2018-12-30T09:41:56.386Z,1013.6
2018-12-30T09:42:57.108Z,1013.6
2018-12-30T09:43:57.848Z,1013.7
2018-12-30T09:44:58.613Z,1013.7
2018-12-30T09:45:59.342Z,1013.7
2018-12-30T09:47:00.064Z,1013.7
2018-12-30T09:48:00.778Z,1013.7
2018-12-30T09:49:01.500Z,1013.7
2018-12-30T09:50:02.212Z,1013.8
2018-12-30T09:51:02.937Z,1013.8
2018-12-30T09:52:03.656Z,1013.8
2018-12-30T09:53:04.442Z,1013.8
2018-12-30T09:54:05.156Z,1013.8
2018-12-30T09:55:05.880Z,1013.8
2018-12-30T09:56:06.602Z,1013.8
2018-12-30T09:57:07.568Z,1013.9
2018-12-30T09:58:08.311Z,1013.8
2018-12-30T09:59:09.036Z,1013.9
2018-12-30T10:00:09.760Z,1013.8
2018-12-30T10:01:10.582Z,1013.9
2018-12-30T10:02:11.221Z,1013.9
2018-12-30T10:03:11.949Z,1013.9
2018-12-30T10:04:12.667Z,1013.8
2018-12-30T10:05:13.634Z,1013.8
2018-12-30T10:06:14.363Z,1013.8
2018-12-30T10:07:15.100Z,1013.8
2018-12-30T10:08:15.815Z,1013.8
2018-12-30T10:09:16.540Z,1013.8
2018-12-30T10:10:17.271Z,1013.8
2018-12-30T10:11:17.990Z,1013.7
2018-12-30T10:12:18.722Z,1013.8
2018-12-30T10:13:19.447Z,1013.8
2018-12-30T10:14:20.159Z,1013.8
2018-12-30T10:15:20.879Z,1013.9
2018-12-30T10:16:21.595Z,1013.9
2018-12-30T10:17:22.321Z,1013.9
2018-12-30T10:18:23.025Z,1014.0
2018-12-30T10:19:23.763Z,1014.0
2018-12-30T10:20:24.491Z,1014.0
2018-12-30T10:21:25.211Z,1014.0
2018-12-30T10:22:25.940Z,1013.9
2018-12-30T10:23:26.651Z,1013.8
2018-12-30T10:24:27.615Z,1013.8
2018-12-30T10:25:28.369Z,1013.7
2018-12-30T10:26:29.087Z,1013.7
2018-12-30T10:27:29.830Z,1013.7
2018-12-30T10:28:30.553Z,1013.7
2018-12-30T10:29:31.279Z,1013.6
2018-12-30T10:30:32.008Z,1013.7
2018-12-30T10:31:32.722Z,1013.7
2018-12-30T10:32:33.450Z,1013.8
2018-12-30T10:33:34.172Z,1013.8
2018-12-30T10:34:34.897Z,1013.9
2018-12-30T10:35:35.617Z,1013.9
2018-12-30T10:36:36.346Z,1013.9
2018-12-30T10:37:37.057Z,1014.0
2018-12-30T10:38:37.795Z,1014.0
2018-12-30T10:39:38.507Z,1014.0
2018-12-30T10:40:39.234Z,1014.1
2018-12-30T10:41:39.948Z,1014.0
2018-12-30T10:42:40.672Z,1014.0
2018-12-30T10:43:41.390Z,1013.9
2018-12-30T10:44:42.105Z,1013.8
2018-12-30T10:45:42.854Z,1013.8
2018-12-30T10:46:43.580Z,1013.7
2018-12-30T10:47:44.403Z,1013.7
2018-12-30T10:48:45.128Z,1013.7
2018-12-30T10:49:45.852Z,1013.7
2018-12-30T10:50:46.575Z,1013.7
2018-12-30T10:51:47.294Z,1013.7
2018-12-30T10:52:48.019Z,1013.7
2018-12-30T10:53:48.736Z,1013.7
2018-12-30T10:54:49.452Z,1013.6
2018-12-30T10:55:50.222Z,1013.6
2018-12-30T10:56:50.947Z,1013.7
2018-12-30T10:57:51.670Z,1013.6
2018-12-30T10:58:52.390Z,1013.6
2018-12-30T10:59:53.114Z,1013.6
2018-12-30T11:00:53.838Z,1013.7
2018-12-30T11:01:54.572Z,1013.7
2018-12-30T11:02:55.284Z,1013.7
2018-12-30T11:03:56.008Z,1013.7
2018-12-30T11:04:56.728Z,1013.7
2018-12-30T11:05:57.569Z,1013.7
2018-12-30T11:06:58.297Z,1013.7
2018-12-30T11:07:59.006Z,1013.7
2018-12-30T11:08:59.739Z,1013.7
2018-12-30T11:10:00.463Z,1013.6
2018-12-30T11:11:01.287Z,1013.6
2018-12-30T11:12:02.017Z,1013.7
2018-12-30T11:13:02.733Z,1013.7
2018-12-30T11:14:03.456Z,1013.7
2018-12-30T11:15:04.180Z,1013.6
2018-12-30T11:16:04.903Z,1013.6
2018-12-30T11:17:05.625Z,1013.7
2018-12-30T11:18:06.347Z,1013.6
2018-12-30T11:19:07.073Z,1013.6
2018-12-30T11:20:07.810Z,1013.6
2018-12-30T11:21:08.532Z,1013.6
2018-12-30T11:22:09.248Z,1013.6
2018-12-30T11:23:09.961Z,1013.6
2018-12-30T11:24:10.686Z,1013.6
2018-12-30T11:25:11.407Z,1013.7
2018-12-30T11:26:12.133Z,1013.7
2018-12-30T11:27:12.853Z,1013.7
2018-12-30T11:28:13.569Z,1013.6
2018-12-30T11:29:14.307Z,1013.7
2018-12-30T11:30:15.027Z,1013.7
2018-12-30T11:31:15.750Z,1013.7
2018-12-30T11:32:16.466Z,1013.7
2018-12-30T11:33:17.197Z,1013.6
2018-12-30T11:34:17.913Z,1013.6
2018-12-30T11:35:18.634Z,1013.6
2018-12-30T11:36:19.359Z,1013.7
2018-12-30T11:37:20.078Z,1013.7
2018-12-30T11:38:20.898Z,1013.7
2018-12-30T11:39:21.877Z,1013.7
2018-12-30T11:40:22.592Z,1013.7
2018-12-30T11:41:23.332Z,1013.7
2018-12-30T11:42:24.059Z,1013.7
2018-12-30T11:43:24.814Z,1013.7
2018-12-30T11:44:25.538Z,1013.8
2018-12-30T11:45:26.511Z,1013.7
2018-12-30T11:46:27.233Z,1013.6
2018-12-30T11:47:27.953Z,1013.6
2018-12-30T11:48:28.680Z,1013.6
2018-12-30T11:49:29.412Z,1013.6
2018-12-30T11:50:30.133Z,1013.6
2018-12-30T11:51:30.862Z,1013.6
2018-12-30T11:52:31.573Z,1013.6
2018-12-30T11:53:32.295Z,1013.6
2018-12-30T11:54:33.014Z,1013.5
2018-12-30T11:55:33.757Z,1013.5
2018-12-30T11:56:34.484Z,1013.6
2018-12-30T11:57:35.210Z,1013.6
2018-12-30T11:58:35.938Z,1013.6
2018-12-30T11:59:36.660Z,1013.7
2018-12-30T12:00:37.431Z,1013.7
2018-12-30T12:01:38.147Z,1013.7
2018-12-30T12:02:39.114Z,1013.7
2018-12-30T12:03:39.836Z,1013.6
2018-12-30T12:04:40.578Z,1013.7
2018-12-30T12:05:41.297Z,1013.7
2018-12-30T12:06:42.026Z,1013.7
2018-12-30T12:07:42.747Z,1013.7
2018-12-30T12:08:43.469Z,1013.6
2018-12-30T12:09:44.186Z,1013.6
2018-12-30T12:10:44.903Z,1013.7
2018-12-30T12:11:45.632Z,1013.6
2018-12-30T12:12:48.998Z,1013.6
2018-12-30T12:13:47.069Z,1013.6
2018-12-30T12:14:47.802Z,1013.6
2018-12-30T12:15:48.526Z,1013.7
2018-12-30T12:16:49.248Z,1013.7
2018-12-30T12:17:50.030Z,1013.7
2018-12-30T12:18:50.750Z,1013.7
2018-12-30T12:19:51.476Z,1013.7
2018-12-30T12:20:52.198Z,1013.6
2018-12-30T12:21:52.918Z,1013.7
2018-12-30T12:22:53.655Z,1013.7
2018-12-30T12:23:54.381Z,1013.7
2018-12-30T12:24:55.104Z,1013.7
2018-12-30T12:25:56.082Z,1013.7
2018-12-30T12:26:56.809Z,1013.7
2018-12-30T12:27:57.529Z,1013.7
2018-12-30T12:28:58.349Z,1013.7
2018-12-30T12:29:59.078Z,1013.8
2018-12-30T12:30:59.795Z,1013.8
2018-12-30T12:32:00.519Z,1013.7
2018-12-30T12:33:01.233Z,1013.7
2018-12-30T12:34:01.951Z,1013.7
2018-12-30T12:35:02.824Z,1013.7
2018-12-30T12:36:03.547Z,1013.7
2018-12-30T12:37:04.257Z,1013.7
2018-12-30T12:38:04.977Z,1013.7
2018-12-30T12:39:05.696Z,1013.7